Time;durP1;ratioP1;P1;durP2;ratioP2;P2;SDS_P1;SDS_P2;PMS_P1;PMS_P2;Temp;Humidity;BMP_temperature;BMP_pressure;BME280_temperature;BME280_humidity;BME280_pressure;Samples;Min_cycle;Max_cycle;Signal;HPM_P1;HPM_P2
2022/10/01 00:01:56;;;;;;;2.95;1.88;;;;;;;12.96;80.37;99949.91;5027378;28;20029;-71
2022/10/01 00:04:22;;;;;;;2.85;1.90;;;;;;;12.79;80.88;99954.19;5037746;28;20696;-71
2022/10/01 00:06:47;;;;;;;4.68;1.90;;;;;;;12.69;80.99;99952.25;5032408;28;20056;-71
2022/10/01 00:09:13;;;;;;;2.53;1.80;;;;;;;12.86;81.34;99937.19;5033557;28;20580;-71
2022/10/01 00:11:38;;;;;;;2.22;1.90;;;;;;;12.95;81.23;99940.28;5037649;28;20037;-71
2022/10/01 00:14:04;;;;;;;2.65;2.15;;;;;;;13.05;80.39;99942.19;5030942;28;20044;-71
2022/10/01 00:16:30;;;;;;;2.45;1.50;;;;;;;13.01;80.32;99936.00;5034710;28;20033;-71
2022/10/01 00:18:56;;;;;;;2.45;1.67;;;;;;;12.94;80.92;99939.50;5029581;28;20107;-71
2022/10/01 00:21:25;;;;;;;2.80;1.75;;;;;;;12.91;81.16;99931.41;5036041;28;20048;-71
2022/10/01 00:23:56;;;;;;;2.45;1.70;;;;;;;13.06;80.85;99932.94;5026559;28;20033;-71
2022/10/01 00:26:26;;;;;;;3.53;2.35;;;;;;;13.14;80.72;99937.94;5036917;28;20435;-71
2022/10/01 00:29:00;;;;;;;2.35;1.60;;;;;;;12.89;80.72;99928.31;5036974;28;20041;-71
2022/10/01 00:31:26;;;;;;;2.08;1.65;;;;;;;12.83;81.42;99917.13;5030306;28;20047;-71
2022/10/01 00:33:53;;;;;;;3.92;2.20;;;;;;;12.87;81.64;99915.19;5014498;28;20540;-69
2022/10/01 00:36:18;;;;;;;1.45;1.30;;;;;;;12.76;81.45;99921.72;5032420;28;20041;-69
2022/10/01 00:38:46;;;;;;;2.85;1.77;;;;;;;12.82;82.79;99918.28;5036820;28;20083;-69
2022/10/01 00:41:13;;;;;;;2.10;1.52;;;;;;;12.82;81.78;99912.88;5034900;28;20033;-70
2022/10/01 00:43:43;;;;;;;3.60;1.90;;;;;;;12.96;81.12;99917.47;5028345;28;20048;-71
2022/10/01 00:46:16;;;;;;;2.85;1.88;;;;;;;12.82;80.86;99901.28;5038234;28;20129;-71
2022/10/01 00:48:46;;;;;;;2.50;1.80;;;;;;;12.73;82.17;99901.69;5030443;28;20108;-71
2022/10/01 00:51:12;;;;;;;2.17;1.73;;;;;;;12.81;81.84;99899.75;5029235;28;20076;-71
2022/10/01 00:53:39;;;;;;;3.03;2.28;;;;;;;12.88;81.56;99899.72;5026023;28;20033;-71
2022/10/01 00:56:06;;;;;;;2.67;1.80;;;;;;;12.83;81.87;99894.72;5018735;28;20120;-71
2022/10/01 00:58:32;;;;;;;2.90;1.90;;;;;;;12.90;81.74;99886.59;5040015;28;20028;-71
2022/10/01 01:00:58;;;;;;;1.67;1.55;;;;;;;13.02;81.32;99883.50;5031899;28;20032;-71
2022/10/01 01:03:25;;;;;;;3.65;2.03;;;;;;;12.92;81.64;99879.66;5043115;28;20576;-71
2022/10/01 01:05:50;;;;;;;2.10;1.30;;;;;;;13.01;80.82;99874.59;5042389;28;20037;-71
2022/10/01 01:08:16;;;;;;;2.10;1.60;;;;;;;12.95;81.04;99873.47;5035029;28;20041;-71
2022/10/01 01:11:02;;;;;;;4.05;2.13;;;;;;;12.99;80.86;99868.06;5031424;28;20045;-71
2022/10/01 01:14:08;;;;;;;1.95;1.70;;;;;;;12.89;81.32;99866.91;5020681;28;20409;-71
2022/10/01 01:16:44;;;;;;;2.45;1.92;;;;;;;12.79;81.40;99870.41;4993308;28;20064;-71
2022/10/01 01:19:21;;;;;;;3.05;1.85;;;;;;;12.85;82.24;99868.09;5031891;28;20042;-71
2022/10/01 01:21:59;;;;;;;2.45;1.73;;;;;;;12.88;81.85;99867.31;5022078;28;20037;-71
2022/10/01 01:24:46;;;;;;;2.35;1.55;;;;;;;12.76;82.39;99865.00;5039124;28;20029;-71
2022/10/01 01:27:39;;;;;;;6.72;1.75;;;;;;;12.78;82.15;99855.34;5017298;28;21495;-71
2022/10/01 01:30:09;;;;;;;2.65;1.88;;;;;;;12.82;82.46;99852.63;5023005;28;20128;-71
2022/10/01 01:32:45;;;;;;;3.97;2.08;;;;;;;12.81;81.87;99851.88;5040635;28;20040;-71
2022/10/01 01:35:17;;;;;;;2.33;1.25;;;;;;;12.81;82.13;99840.31;5034069;28;20045;-71
2022/10/01 01:37:51;;;;;;;2.20;1.70;;;;;;;12.91;81.90;99839.50;5033455;28;20090;-71
2022/10/01 01:40:18;;;;;;;2.55;1.65;;;;;;;12.80;82.05;99839.53;5029346;28;20036;-71
2022/10/01 01:42:45;;;;;;;3.70;2.10;;;;;;;12.95;81.83;99827.50;5050753;28;20447;-71
2022/10/01 01:45:17;;;;;;;5.05;2.05;;;;;;;13.06;80.69;99827.53;5041594;28;20044;-71
2022/10/01 01:47:44;;;;;;;3.25;1.80;;;;;;;12.96;81.36;99823.66;5040296;28;21540;-71
2022/10/01 01:50:13;;;;;;;3.00;1.40;;;;;;;12.98;81.38;99801.66;5020049;28;20114;-71
2022/10/01 01:52:38;;;;;;;3.80;1.60;;;;;;;13.01;80.97;99814.38;5037514;28;20043;-71
2022/10/01 01:55:07;;;;;;;2.80;1.50;;;;;;;12.94;81.29;99817.09;5035887;28;20470;-71
2022/10/01 01:57:38;;;;;;;6.10;1.77;;;;;;;13.02;81.21;99802.41;5033304;28;20037;-71
2022/10/01 02:00:03;;;;;;;2.60;1.60;;;;;;;13.03;81.11;99796.63;5035203;28;20037;-71
2022/10/01 02:02:36;;;;;;;1.60;1.50;;;;;;;13.00;80.95;99794.69;5033462;28;20033;-71
2022/10/01 02:05:12;;;;;;;2.25;1.65;;;;;;;13.06;80.94;99787.75;5027936;28;20438;-71
2022/10/01 02:08:04;;;;;;;2.10;1.50;;;;;;;12.89;81.55;99798.59;5033076;28;20111;-71
2022/10/01 02:10:54;;;;;;;1.85;1.58;;;;;;;13.06;81.21;99786.97;5032951;28;20494;-71
2022/10/01 02:13:31;;;;;;;2.28;1.38;;;;;;;13.01;81.01;99790.03;5041109;28;20037;-71
2022/10/01 02:16:19;;;;;;;2.28;1.40;;;;;;;13.00;81.14;99780.41;5015976;28;20039;-71
2022/10/01 02:19:17;;;;;;;1.80;1.30;;;;;;;12.87;82.25;99773.91;5034282;28;20473;-71
2022/10/01 02:21:57;;;;;;;2.42;1.40;;;;;;;12.72;81.73;99767.75;5032171;28;20556;-71
2022/10/01 02:24:32;;;;;;;3.35;1.40;;;;;;;12.82;81.42;99758.84;5039209;28;20049;-71
2022/10/01 02:27:02;;;;;;;2.75;1.40;;;;;;;12.57;82.16;99758.16;5031750;28;20029;-71
2022/10/01 02:29:28;;;;;;;3.45;1.50;;;;;;;12.75;82.13;99756.19;5048808;28;20432;-71
2022/10/01 02:31:55;;;;;;;3.70;1.30;;;;;;;12.84;81.90;99748.41;5045126;28;20267;-71
2022/10/01 02:34:26;;;;;;;2.10;1.50;;;;;;;12.95;80.68;99746.44;5033117;28;20123;-71
2022/10/01 02:36:54;;;;;;;4.45;1.85;;;;;;;12.95;81.13;99743.00;5039028;28;20029;-71
2022/10/01 02:39:22;;;;;;;2.35;1.88;;;;;;;13.05;80.74;99737.53;5034167;28;20501;-71
2022/10/01 02:41:52;;;;;;;2.13;1.30;;;;;;;12.93;80.37;99731.78;5034946;28;20120;-71
2022/10/01 02:44:22;;;;;;;1.40;0.95;;;;;;;12.93;81.31;99734.50;5014882;28;20033;-71
2022/10/01 02:47:06;;;;;;;1.42;1.23;;;;;;;12.90;80.49;99733.34;5030984;28;20533;-71
2022/10/01 02:49:33;;;;;;;4.45;1.40;;;;;;;12.91;80.28;99720.59;5035876;28;20029;-71
2022/10/01 02:52:08;;;;;;;2.58;1.48;;;;;;;12.88;80.95;99715.97;5022646;28;20220;-71
2022/10/01 02:54:50;;;;;;;1.50;1.17;;;;;;;13.03;80.86;99717.44;5040143;28;20095;-71
2022/10/01 02:57:25;;;;;;;1.70;1.30;;;;;;;13.01;80.47;99715.13;5040755;28;20034;-71
2022/10/01 02:59:53;;;;;;;2.10;1.30;;;;;;;12.83;80.54;99709.06;5018146;28;20040;-71
2022/10/01 03:02:21;;;;;;;2.55;1.50;;;;;;;12.90;81.07;99700.13;5032756;28;20140;-71
2022/10/01 03:04:47;;;;;;;1.52;1.42;;;;;;;12.96;80.10;99703.97;5029467;28;20104;-72
2022/10/01 03:07:14;;;;;;;2.80;1.77;;;;;;;13.02;80.11;99699.69;5038669;28;20056;-71
2022/10/01 03:09:40;;;;;;;2.53;1.40;;;;;;;12.96;81.12;99693.16;5047221;28;20041;-71
2022/10/01 03:12:05;;;;;;;1.60;1.50;;;;;;;12.85;80.63;99689.75;5032126;28;20040;-71
2022/10/01 03:14:32;;;;;;;2.22;1.60;;;;;;;13.05;80.10;99682.72;5025115;28;20481;-71
2022/10/01 03:16:58;;;;;;;1.20;1.10;;;;;;;12.99;80.54;99679.63;5036061;28;20103;-71
2022/10/01 03:19:24;;;;;;;5.05;1.48;;;;;;;13.02;80.55;99672.66;5032000;28;20037;-71
2022/10/01 03:21:49;;;;;;;2.63;1.50;;;;;;;13.21;80.65;99674.91;5036573;28;20046;-71
2022/10/01 03:24:14;;;;;;;4.03;1.70;;;;;;;12.91;80.59;99669.25;5035816;28;20044;-71
2022/10/01 03:26:40;;;;;;;3.25;1.38;;;;;;;13.06;80.72;99668.03;5040824;28;20045;-71
2022/10/01 03:29:05;;;;;;;3.63;1.55;;;;;;;13.10;80.10;99668.78;5041415;28;20116;-71
2022/10/01 03:31:31;;;;;;;4.15;1.40;;;;;;;13.13;80.26;99662.59;5039832;28;20045;-71
2022/10/01 03:33:59;;;;;;;2.08;1.73;;;;;;;13.07;80.10;99661.47;5033137;28;20035;-71
2022/10/01 03:36:26;;;;;;;3.42;1.75;;;;;;;12.99;79.94;99662.66;5039040;28;20041;-71
2022/10/01 03:38:52;;;;;;;1.30;1.20;;;;;;;13.01;80.45;99654.91;5037756;28;20069;-71
2022/10/01 03:41:17;;;;;;;1.63;1.33;;;;;;;13.07;80.11;99654.13;5032274;28;20072;-71
2022/10/01 03:43:42;;;;;;;2.42;1.63;;;;;;;13.16;79.59;99656.41;5031636;28;20060;-71
2022/10/01 03:46:08;;;;;;;2.15;1.27;;;;;;;13.32;79.11;99648.53;5029246;28;20041;-71
2022/10/01 03:48:33;;;;;;;2.05;1.63;;;;;;;13.24;79.51;99655.19;5030945;28;20033;-71
2022/10/01 03:50:59;;;;;;;2.30;1.58;;;;;;;13.08;80.84;99654.91;5040649;28;20091;-71
2022/10/01 03:53:26;;;;;;;1.80;1.30;;;;;;;13.05;81.07;99650.28;5045308;28;20040;-71
2022/10/01 03:55:52;;;;;;;1.80;1.50;;;;;;;13.05;80.95;99656.47;5037488;28;20032;-71
2022/10/01 03:58:18;;;;;;;2.47;1.85;;;;;;;13.06;80.90;99641.00;5034919;28;20501;-71
2022/10/01 04:00:47;;;;;;;2.28;1.60;;;;;;;13.19;80.80;99647.50;5034287;28;20033;-71
2022/10/01 04:03:13;;;;;;;2.58;1.17;;;;;;;13.34;79.93;99646.22;5041692;28;20037;-71
2022/10/01 04:05:41;;;;;;;4.03;1.77;;;;;;;13.35;80.57;99642.34;5035985;28;20061;-70
2022/10/01 04:08:06;;;;;;;3.83;0.77;;;;;;;13.31;80.02;99647.03;5037091;28;20041;-71
2022/10/01 04:10:32;;;;;;;2.20;1.38;;;;;;;13.16;80.95;99645.59;5037235;28;20489;-71
2022/10/01 04:12:58;;;;;;;1.73;1.23;;;;;;;13.29;80.57;99639.31;5029917;28;20034;-71
2022/10/01 04:15:24;;;;;;;1.83;1.33;;;;;;;13.06;81.59;99644.50;5029159;28;20037;-71
2022/10/01 04:17:50;;;;;;;3.30;1.52;;;;;;;13.13;81.68;99633.63;5031680;28;20464;-71
2022/10/01 04:20:15;;;;;;;1.80;1.20;;;;;;;13.23;81.63;99619.28;5014654;28;20033;-71
2022/10/01 04:22:41;;;;;;;3.33;1.95;;;;;;;13.20;82.48;99625.47;5031946;28;20041;-71
2022/10/01 04:25:11;;;;;;;2.67;1.40;;;;;;;13.27;82.16;99630.06;5033211;28;20075;-71
2022/10/01 04:27:37;;;;;;;1.65;1.20;;;;;;;13.03;84.00;99622.84;5031915;28;20397;-71
2022/10/01 04:30:04;;;;;;;2.08;1.38;;;;;;;13.00;84.67;99621.72;5039269;28;20048;-71
2022/10/01 04:32:30;;;;;;;2.38;1.27;;;;;;;13.06;85.01;99608.56;5055460;22;20041;-67
2022/10/01 04:34:56;;;;;;;1.05;0.98;;;;;;;12.97;86.44;99598.16;5025770;28;20044;-66
2022/10/01 04:37:22;;;;;;;1.52;1.25;;;;;;;12.69;86.81;99599.13;5031421;28;20481;-66
2022/10/01 04:39:48;;;;;;;1.55;1.17;;;;;;;12.81;87.86;99599.84;5026823;28;20037;-66
2022/10/01 04:42:14;;;;;;;1.73;1.50;;;;;;;12.77;88.78;99588.28;5023598;28;20025;-66
2022/10/01 04:44:40;;;;;;;2.22;1.52;;;;;;;12.76;89.20;99582.09;5002521;28;20179;-66
2022/10/01 04:47:07;;;;;;;1.83;1.25;;;;;;;12.69;89.44;99577.53;4995968;28;20030;-66
2022/10/01 04:49:33;;;;;;;2.40;1.20;;;;;;;12.80;89.99;99579.38;5010936;28;20718;-65
2022/10/01 04:51:59;;;;;;;3.10;1.30;;;;;;;12.64;89.79;99569.03;5016033;28;20040;-65
2022/10/01 04:54:24;;;;;;;1.27;1.15;;;;;;;12.72;90.95;99559.00;5009873;28;20048;-65
2022/10/01 04:56:50;;;;;;;1.90;1.23;;;;;;;12.69;91.78;99555.91;5006476;28;20029;-66
2022/10/01 04:59:17;;;;;;;2.05;1.40;;;;;;;12.86;90.86;99556.94;5007533;28;20046;-66
2022/10/01 05:01:42;;;;;;;2.22;1.50;;;;;;;12.79;91.28;99542.72;5005973;28;20017;-66
2022/10/01 05:04:08;;;;;;;1.65;1.42;;;;;;;12.64;91.55;99542.03;5008203;28;20102;-66
2022/10/01 05:06:33;;;;;;;2.83;1.20;;;;;;;12.61;92.17;99530.09;4990547;28;20038;-66
2022/10/01 05:08:59;;;;;;;2.42;1.58;;;;;;;12.67;93.15;99512.31;5006405;28;20026;-66
2022/10/01 05:11:24;;;;;;;3.30;1.80;;;;;;;12.74;92.31;99500.69;5007991;28;20112;-65
2022/10/01 05:13:50;;;;;;;1.70;1.40;;;;;;;12.80;91.85;99492.91;5008662;28;20136;-65
2022/10/01 05:16:15;;;;;;;3.67;1.60;;;;;;;12.65;92.42;99498.44;5008100;28;20026;-65
2022/10/01 05:18:42;;;;;;;2.97;1.85;;;;;;;12.39;94.05;99490.88;5008199;28;20041;-65
2022/10/01 05:21:10;;;;;;;2.05;1.33;;;;;;;12.31;95.06;99494.78;4990274;28;20037;-66
2022/10/01 05:23:36;;;;;;;2.08;1.70;;;;;;;12.44;94.59;99476.97;5009598;28;20037;-66
2022/10/01 05:26:06;;;;;;;1.90;1.23;;;;;;;12.58;95.06;99482.25;5008530;28;20498;-66
2022/10/01 05:28:33;;;;;;;2.92;1.50;;;;;;;12.62;94.67;99474.91;4986309;28;20049;-65
2022/10/01 05:30:59;;;;;;;3.60;1.90;;;;;;;12.61;95.81;99467.97;5007910;28;20060;-66
2022/10/01 05:33:26;;;;;;;2.40;1.48;;;;;;;12.61;94.73;99464.50;5000683;28;20041;-65
2022/10/01 05:35:52;;;;;;;4.20;1.77;;;;;;;12.52;95.55;99472.31;4999812;28;20045;-66
2022/10/01 05:38:18;;;;;;;1.88;1.30;;;;;;;12.62;95.82;99471.44;5002636;28;20049;-66
2022/10/01 05:40:46;;;;;;;1.90;1.60;;;;;;;12.59;94.96;99464.13;5003769;28;20044;-65
2022/10/01 05:43:12;;;;;;;6.93;2.03;;;;;;;12.45;96.12;99465.00;5002697;28;20036;-65
2022/10/01 05:45:38;;;;;;;2.88;1.35;;;;;;;12.51;95.95;99455.31;5008580;28;20037;-65
2022/10/01 05:48:06;;;;;;;1.50;1.40;;;;;;;12.25;97.55;99458.56;5005045;28;20049;-66
2022/10/01 05:50:34;;;;;;;3.63;1.38;;;;;;;12.18;97.80;99460.53;5014739;28;20034;-65
2022/10/01 05:53:00;;;;;;;1.58;1.20;;;;;;;12.23;98.31;99455.50;5022029;28;20029;-65
2022/10/01 05:55:32;;;;;;;2.40;1.83;;;;;;;12.28;98.65;99470.50;5012507;28;20518;-65
2022/10/01 05:58:11;;;;;;;2.97;1.63;;;;;;;12.30;99.00;99458.16;5007269;28;20061;-65
2022/10/01 06:00:38;;;;;;;1.27;1.05;;;;;;;12.50;97.50;99448.38;5014809;28;20042;-65
2022/10/01 06:03:05;;;;;;;2.13;1.40;;;;;;;12.53;97.72;99452.22;4997559;28;20040;-65
2022/10/01 06:05:33;;;;;;;1.98;1.63;;;;;;;12.54;99.06;99446.41;5010675;28;20050;-65
2022/10/01 06:07:59;;;;;;;2.60;1.55;;;;;;;12.47;98.92;99451.88;5009352;28;20029;-65
2022/10/01 06:10:29;;;;;;;2.85;1.70;;;;;;;12.41;99.35;99449.97;5015193;28;20093;-65
2022/10/01 06:13:00;;;;;;;2.67;1.63;;;;;;;12.43;99.61;99443.03;5006932;28;20038;-65
2022/10/01 06:15:26;;;;;;;3.45;2.08;;;;;;;12.45;99.21;99434.53;5008349;28;20045;-65
2022/10/01 06:17:52;;;;;;;2.22;1.55;;;;;;;12.42;98.54;99435.34;5009256;28;20172;-66
2022/10/01 06:20:18;;;;;;;4.68;2.05;;;;;;;12.31;99.54;99443.50;5012443;28;20537;-65
2022/10/01 06:22:44;;;;;;;3.25;2.03;;;;;;;12.07;100.00;99439.03;5012363;28;20038;-65
2022/10/01 06:25:14;;;;;;;2.47;1.50;;;;;;;12.27;100.00;99426.53;5001936;28;20482;-65
2022/10/01 06:27:40;;;;;;;3.78;1.85;;;;;;;12.21;100.00;99438.94;5012123;28;20049;-65
2022/10/01 06:30:06;;;;;;;1.80;1.45;;;;;;;12.45;100.00;99429.91;5009084;28;20617;-64
2022/10/01 06:32:32;;;;;;;3.33;1.65;;;;;;;12.42;100.00;99427.22;5010210;28;20030;-65
2022/10/01 06:34:57;;;;;;;2.67;1.95;;;;;;;12.34;100.00;99425.75;5007067;28;20504;-65
2022/10/01 06:37:23;;;;;;;3.75;1.77;;;;;;;12.33;100.00;99421.53;4994579;28;20135;-64
2022/10/01 06:39:49;;;;;;;3.35;1.70;;;;;;;12.32;100.00;99409.16;4998891;28;20559;-65
2022/10/01 06:42:14;;;;;;;2.67;1.63;;;;;;;12.40;100.00;99411.44;5008412;28;20104;-65
2022/10/01 06:44:41;;;;;;;2.47;1.80;;;;;;;12.27;100.00;99399.56;5007406;28;20041;-65
2022/10/01 06:47:07;;;;;;;2.83;1.60;;;;;;;12.29;100.00;99401.88;5007145;28;20370;-64
2022/10/01 06:49:33;;;;;;;2.50;1.80;;;;;;;12.20;100.00;99405.00;5006941;28;20041;-65
2022/10/01 06:54:42;;;;;;;2.10;1.55;;;;;;;12.04;100.00;99377.72;5005744;28;20030;-65
2022/10/01 06:57:08;;;;;;;1.90;1.70;;;;;;;12.20;100.00;99380.72;5002292;28;20044;-65
2022/10/01 06:59:35;;;;;;;2.58;1.45;;;;;;;12.30;100.00;99385.28;5015786;28;20048;-66
2022/10/01 07:02:01;;;;;;;4.25;1.73;;;;;;;12.39;100.00;99388.28;5010062;28;20123;-64
2022/10/01 07:04:27;;;;;;;2.83;1.92;;;;;;;12.22;100.00;99362.19;4997955;28;20462;-65
2022/10/01 07:06:54;;;;;;;2.97;2.08;;;;;;;12.18;100.00;99364.16;5003802;28;20034;-64
2022/10/01 07:09:25;;;;;;;2.80;2.03;;;;;;;12.37;100.00;99373.63;5006930;28;20026;-65
2022/10/01 07:11:52;;;;;;;3.67;1.65;;;;;;;12.42;100.00;99376.72;5002094;28;20113;-65
2022/10/01 07:14:18;;;;;;;2.97;1.73;;;;;;;12.06;100.00;99361.19;5009655;28;20037;-65
2022/10/01 07:16:44;;;;;;;1.92;1.48;;;;;;;12.10;100.00;99359.97;5012673;28;20121;-65
2022/10/01 07:19:09;;;;;;;2.30;1.83;;;;;;;12.06;100.00;99364.63;5001401;28;20042;-65
2022/10/01 07:21:35;;;;;;;6.65;1.65;;;;;;;12.00;100.00;99365.44;5006564;28;20038;-66
2022/10/01 07:24:00;;;;;;;2.78;1.85;;;;;;;12.07;100.00;99358.06;5008489;28;20039;-66
2022/10/01 07:26:26;;;;;;;4.38;1.88;;;;;;;12.24;100.00;99362.56;5010014;28;20379;-65
2022/10/01 07:28:51;;;;;;;2.75;1.60;;;;;;;12.35;100.00;99363.25;4999841;28;20030;-65
2022/10/01 07:31:17;;;;;;;2.20;1.50;;;;;;;12.54;100.00;99360.00;5003920;28;20116;-65
2022/10/01 07:33:42;;;;;;;2.20;1.60;;;;;;;12.23;100.00;99350.22;5008742;28;20034;-65
2022/10/01 07:36:09;;;;;;;1.85;1.63;;;;;;;12.36;100.00;99359.41;4997992;28;20100;-65
2022/10/01 07:38:35;;;;;;;2.65;1.95;;;;;;;12.52;100.00;99348.06;5010076;28;20652;-65
2022/10/01 07:41:02;;;;;;;2.33;1.50;;;;;;;12.49;100.00;99341.53;5006936;28;20041;-65
2022/10/01 07:43:29;;;;;;;2.13;1.50;;;;;;;12.37;100.00;99357.44;5009940;28;20536;-66
2022/10/01 07:45:56;;;;;;;2.25;1.73;;;;;;;12.58;100.00;99349.94;5003254;28;20121;-65
2022/10/01 07:48:26;;;;;;;1.83;1.50;;;;;;;12.45;100.00;99351.59;5011041;28;20061;-66
2022/10/01 07:50:52;;;;;;;2.72;1.63;;;;;;;12.59;100.00;99353.41;5002902;28;20530;-65
2022/10/01 07:53:18;;;;;;;2.03;1.42;;;;;;;12.34;100.00;99350.94;5009538;28;20045;-65
2022/10/01 07:55:44;;;;;;;1.95;1.33;;;;;;;12.42;100.00;99341.59;5005824;28;20080;-65
2022/10/01 07:58:13;;;;;;;2.80;1.60;;;;;;;12.28;100.00;99344.41;5001949;28;20036;-65
2022/10/01 08:00:38;;;;;;;2.67;1.55;;;;;;;12.16;100.00;99341.41;4997953;28;20061;-66
2022/10/01 08:03:04;;;;;;;1.40;1.20;;;;;;;12.21;100.00;99341.78;5011250;28;20140;-67
2022/10/01 08:05:33;;;;;;;2.25;1.70;;;;;;;12.34;100.00;99337.44;5006633;28;20037;-66
2022/10/01 08:08:04;;;;;;;1.98;1.70;;;;;;;12.55;100.00;99331.84;4997958;28;20026;-65
2022/10/01 08:10:33;;;;;;;1.77;1.38;;;;;;;12.36;100.00;99320.81;5001864;28;20038;-66
2022/10/01 08:13:00;;;;;;;2.25;1.40;;;;;;;12.45;100.00;99318.41;5000178;28;20522;-67
2022/10/01 08:15:26;;;;;;;2.25;1.55;;;;;;;12.49;100.00;99309.13;4998106;28;20037;-67
2022/10/01 08:17:51;;;;;;;1.88;1.23;;;;;;;12.27;100.00;99323.22;4999357;28;20040;-67
2022/10/01 08:20:17;;;;;;;2.13;1.67;;;;;;;12.42;100.00;99305.72;5006746;28;20064;-67
2022/10/01 08:22:42;;;;;;;2.35;1.50;;;;;;;12.51;100.00;99298.69;5000166;28;20391;-66
2022/10/01 08:25:09;;;;;;;1.73;1.38;;;;;;;12.66;100.00;99302.78;4989656;28;20042;-66
2022/10/01 08:27:37;;;;;;;1.95;1.42;;;;;;;12.62;100.00;99312.84;5004028;28;20121;-66
2022/10/01 08:30:03;;;;;;;1.80;1.40;;;;;;;12.83;100.00;99303.00;5006709;28;20033;-67
2022/10/01 08:32:30;;;;;;;2.05;1.35;;;;;;;12.90;100.00;99302.91;5006805;28;20552;-66
2022/10/01 08:34:56;;;;;;;2.95;1.55;;;;;;;12.85;100.00;99296.03;4989578;28;20393;-66
2022/10/01 08:37:28;;;;;;;1.58;1.10;;;;;;;12.59;100.00;99294.00;5000170;28;20040;-67
2022/10/01 08:39:55;;;;;;;2.25;1.50;;;;;;;12.79;100.00;99307.69;4990474;28;20046;-67
2022/10/01 08:42:32;;;;;;;1.42;0.82;;;;;;;12.64;100.00;99309.75;5007692;28;20395;-66
2022/10/01 08:45:03;;;;;;;2.10;1.10;;;;;;;12.49;100.00;99306.44;5000754;28;21088;-66
2022/10/01 08:47:38;;;;;;;1.67;1.45;;;;;;;12.49;100.00;99301.03;5004314;28;20049;-66
2022/10/01 08:50:30;;;;;;;1.95;1.25;;;;;;;12.64;100.00;99297.00;4999528;28;20034;-67
2022/10/01 08:53:02;;;;;;;1.45;1.10;;;;;;;12.83;100.00;99297.59;4998991;28;20430;-66
2022/10/01 08:55:35;;;;;;;5.05;1.88;;;;;;;12.69;100.00;99285.78;5013630;28;20482;-66
2022/10/01 08:58:04;;;;;;;5.65;1.58;;;;;;;12.62;100.00;99288.53;5009569;28;20073;-66
2022/10/01 09:00:32;;;;;;;2.95;1.60;;;;;;;12.73;100.00;99282.28;4993613;28;20149;-67
2022/10/01 09:03:03;;;;;;;2.78;1.85;;;;;;;12.80;100.00;99287.59;4998900;28;20038;-66
2022/10/01 09:06:02;;;;;;;2.42;1.50;;;;;;;12.70;100.00;99273.81;5003701;28;20044;-67
2022/10/01 09:09:13;;;;;;;2.17;1.33;;;;;;;12.72;100.00;99284.19;5008727;28;20314;-66
2022/10/01 09:11:48;;;;;;;1.30;1.07;;;;;;;12.74;100.00;99289.97;4989417;28;20033;-66
2022/10/01 09:14:13;;;;;;;2.03;1.40;;;;;;;12.67;100.00;99292.75;5008227;28;20328;-66
2022/10/01 09:16:48;;;;;;;1.38;1.23;;;;;;;12.79;100.00;99280.66;5009666;28;20072;-66
2022/10/01 09:19:31;;;;;;;2.08;1.38;;;;;;;12.80;100.00;99282.97;5000413;28;20030;-66
2022/10/01 09:22:04;;;;;;;2.08;1.25;;;;;;;12.89;100.00;99279.78;5011821;28;20068;-66
2022/10/01 09:24:53;;;;;;;1.60;1.27;;;;;;;12.96;100.00;99285.88;5010952;28;20038;-67
2022/10/01 09:27:25;;;;;;;1.83;1.10;;;;;;;12.86;100.00;99286.75;5012040;28;20501;-66
2022/10/01 09:29:56;;;;;;;1.63;1.13;;;;;;;13.02;100.00;99278.84;5012374;28;20065;-66
2022/10/01 09:32:26;;;;;;;1.10;1.00;;;;;;;13.08;100.00;99284.59;5012465;28;20100;-66
2022/10/01 09:34:53;;;;;;;1.75;1.20;;;;;;;13.07;100.00;99281.13;5007623;28;20026;-66
2022/10/01 09:37:27;;;;;;;1.55;0.80;;;;;;;13.13;100.00;99278.72;5011953;28;20147;-66
2022/10/01 09:40:04;;;;;;;1.20;1.10;;;;;;;13.16;100.00;99278.69;5011713;28;20399;-67
2022/10/01 09:42:30;;;;;;;1.20;1.05;;;;;;;13.03;100.00;99275.00;5012228;28;20034;-67
2022/10/01 09:44:56;;;;;;;3.50;1.52;;;;;;;12.95;100.00;99280.88;5004954;28;20098;-66
2022/10/01 09:47:24;;;;;;;1.35;1.00;;;;;;;13.01;100.00;99288.13;5014374;28;20044;-66
2022/10/01 09:49:50;;;;;;;2.30;1.35;;;;;;;13.09;100.00;99286.88;5018397;28;20030;-66
2022/10/01 09:52:27;;;;;;;1.75;1.10;;;;;;;13.09;100.00;99281.47;5011196;28;20045;-66
2022/10/01 09:55:05;;;;;;;1.65;1.25;;;;;;;13.26;100.00;99285.13;5012789;28;20038;-68
2022/10/01 09:57:35;;;;;;;3.83;1.10;;;;;;;13.31;100.00;99285.47;5013360;28;20475;-67
2022/10/01 10:00:09;;;;;;;1.52;1.20;;;;;;;13.34;100.00;99300.88;5012933;28;20057;-66
2022/10/01 10:02:40;;;;;;;1.35;0.98;;;;;;;13.25;100.00;99289.00;5010224;28;20049;-66
2022/10/01 10:05:39;;;;;;;2.92;1.30;;;;;;;13.46;100.00;99297.63;4987593;28;20049;-66
2022/10/01 10:08:27;;;;;;;1.40;1.30;;;;;;;13.57;100.00;99300.94;5004317;28;20099;-67
2022/10/01 10:10:59;;;;;;;1.95;1.52;;;;;;;13.58;100.00;99290.88;4984717;28;20473;-66
2022/10/01 10:13:48;;;;;;;4.07;1.70;;;;;;;13.58;100.00;99302.47;5003671;28;20065;-67
2022/10/01 10:16:29;;;;;;;1.52;1.40;;;;;;;13.54;100.00;99295.56;5005019;28;20052;-66
2022/10/01 10:19:03;;;;;;;1.87;1.73;;;;;;;13.35;100.00;99299.69;5007753;28;20564;-67
2022/10/01 10:21:33;;;;;;;1.60;1.38;;;;;;;13.54;100.00;99301.75;5006165;28;20037;-66
2022/10/01 10:24:01;;;;;;;3.10;1.75;;;;;;;13.74;100.00;99310.00;5008341;28;20135;-67
2022/10/01 10:26:34;;;;;;;2.65;1.80;;;;;;;13.80;100.00;99310.28;5009207;28;20045;-67
2022/10/01 10:29:01;;;;;;;2.78;1.95;;;;;;;13.88;100.00;99309.00;5008100;28;20053;-66
2022/10/01 10:31:37;;;;;;;4.72;2.15;;;;;;;13.97;100.00;99306.53;5006109;28;20406;-67
2022/10/01 10:34:14;;;;;;;3.13;1.83;;;;;;;14.12;100.00;99315.97;5024710;22;20042;-69
2022/10/01 10:36:41;;;;;;;6.10;1.83;;;;;;;14.20;100.00;99318.16;5026243;28;20049;-68
2022/10/01 10:39:22;;;;;;;2.95;1.98;;;;;;;14.25;100.00;99316.91;5026417;28;20096;-68
2022/10/01 10:41:50;;;;;;;3.38;2.00;;;;;;;14.25;100.00;99325.81;5023271;28;20045;-68
2022/10/01 10:44:20;;;;;;;3.55;1.83;;;;;;;14.36;100.00;99323.72;5029258;28;20473;-69
2022/10/01 10:46:48;;;;;;;2.28;1.70;;;;;;;14.45;100.00;99329.38;5025112;28;20040;-69
2022/10/01 10:49:42;;;;;;;3.00;2.03;;;;;;;14.41;100.00;99334.09;5029135;28;20072;-68
2022/10/01 10:52:22;;;;;;;2.60;1.60;;;;;;;14.59;100.00;99333.03;5029368;28;20450;-70
2022/10/01 10:54:53;;;;;;;3.33;2.13;;;;;;;14.64;100.00;99336.00;5028138;28;20037;-68
2022/10/01 10:57:19;;;;;;;5.05;2.08;;;;;;;14.69;100.00;99342.91;5011591;28;20721;-69
2022/10/01 10:59:58;;;;;;;3.05;1.90;;;;;;;14.75;100.00;99350.13;5028720;28;20041;-68
2022/10/01 11:02:28;;;;;;;2.17;1.60;;;;;;;14.76;100.00;99346.25;5023432;28;20120;-69
2022/10/01 11:04:56;;;;;;;2.67;2.30;;;;;;;14.90;100.00;99342.53;5016566;28;20033;-68
2022/10/01 11:07:24;;;;;;;3.47;2.00;;;;;;;14.87;100.00;99352.25;5027390;28;20048;-69
2022/10/01 11:09:53;;;;;;;4.30;2.35;;;;;;;14.90;100.00;99342.53;5025574;28;20042;-68
2022/10/01 11:12:30;;;;;;;2.95;1.92;;;;;;;14.89;100.00;99354.53;5025562;28;20029;-68
2022/10/01 11:15:12;;;;;;;2.72;2.13;;;;;;;15.10;100.00;99346.78;5024850;28;20051;-68
2022/10/01 11:17:48;;;;;;;4.65;2.45;;;;;;;15.12;100.00;99340.91;5022970;28;20482;-68
2022/10/01 11:20:32;;;;;;;4.05;2.35;;;;;;;15.24;100.00;99346.50;5027687;28;20095;-70
2022/10/01 11:23:05;;;;;;;4.32;1.95;;;;;;;15.37;100.00;99341.19;5025665;28;20037;-71
2022/10/01 11:25:49;;;;;;;4.20;2.28;;;;;;;15.56;100.00;99343.16;5027045;28;20073;-70
2022/10/01 11:28:23;;;;;;;5.18;2.22;;;;;;;15.85;100.00;99346.03;5025663;28;20555;-70
2022/10/01 11:31:35;;;;;;;4.88;1.90;;;;;;;15.84;100.00;99349.91;5027026;28;20090;-70
2022/10/01 11:34:09;;;;;;;3.60;2.22;;;;;;;16.06;100.00;99340.09;5021662;28;20054;-70
2022/10/01 11:36:44;;;;;;;3.97;1.80;;;;;;;16.26;100.00;99346.97;5030313;28;21315;-70
2022/10/01 11:39:15;;;;;;;2.83;2.05;;;;;;;16.31;100.00;99336.78;5032647;28;20036;-70
2022/10/01 11:41:50;;;;;;;4.45;1.92;;;;;;;16.31;100.00;99347.66;5023764;28;20489;-70
2022/10/01 11:44:38;;;;;;;2.38;2.00;;;;;;;16.42;100.00;99346.22;5027110;28;20666;-70
2022/10/01 11:47:09;;;;;;;2.65;1.80;;;;;;;16.49;100.00;99361.63;5022045;28;20055;-70